Ashton, Kansas
Current Conditions -  °F | °C
As of 8:54 AM on Wednesday 22 Oct 2014 (Local Time) from KWLD Reporting Station
Overcast Overcast  
Wind Chill: 62°   Ceiling: 6500
Heat Index: 62°   Visibility: 8mi
Dew Point: 59°   Wind: 5mph
Humidity: 90%   Direction: 140°SE
Pressure: 30.15"   Gusts: NA
Location:  37.0641°N, 97.2025°W
Report Text: KWLD 221354Z AUTO 14004KT 8SM OVC065 17/15 A3015 RMK AO2 SLP204 T01670150
Loading
Personal Weather Stations






























Interactive Weather Map
Tropical Storm Tracking
New forecast layout! Learn more

10-Day Weather Forecast

Advertisements
Track Severe Weather on mobile